Time;durP1;ratioP1;P1;durP2;ratioP2;P2;SDS_P1;SDS_P2;PMS_P1;PMS_P2;Temp;Humidity;BMP_temperature;BMP_pressure;BME280_temperature;BME280_humidity;BME280_pressure;Samples;Min_cycle;Max_cycle;Signal;HPM_P1;HPM_P2
2023/03/31 00:01:10;;;;;;;2.60;1.15;;;10.60;99.90;;;;;;5114005;28;20314;-81
2023/03/31 00:03:42;;;;;;;4.07;1.25;;;10.60;99.90;;;;;;5113509;28;20211;-81
2023/03/31 00:06:18;;;;;;;1.20;1.10;;;10.50;99.90;;;;;;5113990;28;20260;-81
2023/03/31 00:08:50;;;;;;;1.45;1.35;;;10.50;99.90;;;;;;5113028;28;20257;-81
2023/03/31 00:11:20;;;;;;;1.13;1.10;;;10.50;99.90;;;;;;5113786;28;20332;-81
2023/03/31 00:13:50;;;;;;;2.47;1.45;;;10.50;99.90;;;;;;5103737;28;20200;-81
2023/03/31 00:16:19;;;;;;;1.20;1.15;;;10.50;99.90;;;;;;5112973;28;20253;-82
2023/03/31 00:18:49;;;;;;;1.35;1.25;;;10.40;99.90;;;;;;5112574;28;20212;-81
2023/03/31 00:21:28;;;;;;;1.58;1.27;;;10.40;99.90;;;;;;5112947;28;20279;-82
2023/03/31 00:24:00;;;;;;;1.95;1.50;;;10.40;99.90;;;;;;5093100;28;20205;-82
2023/03/31 00:26:28;;;;;;;2.45;1.33;;;10.40;99.90;;;;;;5093146;28;20216;-81
2023/03/31 00:28:58;;;;;;;1.17;1.08;;;10.30;99.90;;;;;;5100567;28;20196;-82
2023/03/31 00:31:27;;;;;;;7.68;1.80;;;10.30;99.90;;;;;;5112721;28;20224;-81
2023/03/31 00:33:56;;;;;;;1.55;1.45;;;10.20;99.90;;;;;;5113290;28;20210;-81
2023/03/31 00:36:27;;;;;;;1.40;1.27;;;10.20;99.90;;;;;;5113253;28;20199;-82
2023/03/31 00:38:58;;;;;;;2.45;1.73;;;10.20;99.90;;;;;;5112308;28;20211;-82
2023/03/31 00:41:28;;;;;;;1.27;1.17;;;10.10;99.90;;;;;;5112946;28;20262;-82
2023/03/31 00:44:11;;;;;;;25.52;2.20;;;10.10;99.90;;;;;;5112892;28;20245;-82
2023/03/31 00:46:46;;;;;;;1.70;1.60;;;10.10;99.90;;;;;;5112882;28;20260;-82
2023/03/31 00:49:20;;;;;;;1.52;1.40;;;10.10;99.90;;;;;;5113058;28;20291;-82
2023/03/31 00:51:52;;;;;;;1.30;1.20;;;10.20;99.90;;;;;;5112486;28;20223;-82
2023/03/31 00:54:24;;;;;;;3.92;1.38;;;10.30;99.90;;;;;;5113828;28;20294;-81
2023/03/31 00:56:57;;;;;;;1.92;1.60;;;10.40;99.90;;;;;;5114170;28;20203;-82
2023/03/31 00:59:30;;;;;;;5.00;1.65;;;10.40;99.90;;;;;;5113376;28;20222;-82
2023/03/31 01:02:02;;;;;;;2.10;1.38;;;10.40;99.90;;;;;;5112521;28;20227;-81
2023/03/31 01:04:35;;;;;;;1.15;1.15;;;10.40;99.90;;;;;;5112864;28;20279;-82
2023/03/31 01:07:11;;;;;;;2.28;1.85;;;10.40;99.90;;;;;;5112418;28;20231;-82
2023/03/31 01:09:40;;;;;;;1.48;1.38;;;10.40;99.90;;;;;;5097708;28;20203;-81
2023/03/31 01:12:11;;;;;;;2.30;1.73;;;10.50;99.90;;;;;;5112864;28;20219;-78
2023/03/31 01:14:41;;;;;;;1.60;1.50;;;10.50;99.90;;;;;;5112111;28;20223;-78
2023/03/31 01:17:10;;;;;;;1.67;1.58;;;10.50;99.90;;;;;;5112455;28;20229;-78
2023/03/31 01:19:54;;;;;;;1.45;1.38;;;10.50;99.90;;;;;;5113036;28;20203;-78
2023/03/31 01:23:01;;;;;;;1.83;1.73;;;10.40;99.90;;;;;;5111409;28;20280;-78
2023/03/31 01:26:07;;;;;;;1.92;1.75;;;10.40;99.90;;;;;;5112665;28;20222;-78
2023/03/31 01:28:39;;;;;;;2.25;1.80;;;10.30;99.90;;;;;;5111983;28;20195;-78
2023/03/31 01:31:44;;;;;;;4.30;2.03;;;10.30;99.90;;;;;;5112038;28;20286;-78
2023/03/31 01:34:55;;;;;;;1.27;1.17;;;10.30;99.90;;;;;;5092918;28;20260;-78
2023/03/31 01:37:59;;;;;;;2.00;1.83;;;10.30;99.90;;;;;;5111844;28;20199;-78
2023/03/31 01:40:54;;;;;;;1.60;1.50;;;10.20;99.90;;;;;;5112313;28;20288;-78
2023/03/31 01:43:27;;;;;;;1.75;1.65;;;10.30;99.90;;;;;;5112335;28;20343;-78
2023/03/31 01:46:00;;;;;;;2.25;1.63;;;10.30;99.90;;;;;;5112587;28;20227;-78
2023/03/31 01:48:40;;;;;;;1.77;1.67;;;10.30;99.90;;;;;;5112403;28;20219;-78
2023/03/31 01:51:17;;;;;;;5.03;2.45;;;10.40;99.90;;;;;;5111900;28;20223;-78
2023/03/31 01:53:51;;;;;;;1.90;1.65;;;10.40;99.90;;;;;;5111945;28;20217;-78
2023/03/31 01:56:25;;;;;;;1.90;1.75;;;10.30;99.90;;;;;;5091823;28;20238;-78
2023/03/31 01:58:57;;;;;;;2.13;1.75;;;10.30;99.90;;;;;;5107711;28;20215;-78
2023/03/31 02:01:31;;;;;;;2.17;2.03;;;10.30;99.90;;;;;;5112413;28;20224;-78
2023/03/31 02:04:06;;;;;;;1.60;1.50;;;10.30;99.90;;;;;;5111949;28;20226;-78
2023/03/31 02:06:38;;;;;;;1.80;1.70;;;10.30;99.90;;;;;;5112105;28;20294;-78
2023/03/31 02:09:11;;;;;;;3.38;1.77;;;10.30;99.90;;;;;;5111545;28;20264;-78
2023/03/31 02:11:42;;;;;;;6.47;2.50;;;10.30;99.90;;;;;;5112774;28;20311;-78
2023/03/31 02:14:17;;;;;;;2.47;1.95;;;10.20;99.90;;;;;;5115360;28;20204;-78
2023/03/31 02:16:48;;;;;;;2.55;1.80;;;10.20;99.90;;;;;;5095544;28;20202;-78
2023/03/31 02:19:22;;;;;;;1.70;1.60;;;10.20;99.90;;;;;;5114549;28;20276;-78
2023/03/31 02:21:51;;;;;;;2.00;1.80;;;10.20;99.90;;;;;;5115309;28;20228;-78
2023/03/31 02:24:21;;;;;;;1.83;1.65;;;10.20;99.90;;;;;;5114524;28;20223;-78
2023/03/31 02:26:56;;;;;;;2.78;1.90;;;10.10;99.90;;;;;;5115319;28;20299;-78
2023/03/31 02:29:24;;;;;;;2.08;1.90;;;10.10;99.90;;;;;;5115250;28;20233;-78
2023/03/31 02:32:01;;;;;;;1.92;1.83;;;10.00;99.90;;;;;;5115290;28;20292;-78
2023/03/31 02:34:29;;;;;;;2.10;2.00;;;10.00;99.90;;;;;;5114524;28;20222;-77
2023/03/31 02:36:58;;;;;;;2.15;2.00;;;9.90;99.90;;;;;;5114894;28;20212;-77
2023/03/31 02:39:30;;;;;;;3.50;2.75;;;9.90;99.90;;;;;;5094794;28;20223;-77
2023/03/31 02:42:05;;;;;;;2.45;2.28;;;9.90;99.90;;;;;;5113639;28;20344;-79
2023/03/31 02:44:34;;;;;;;3.90;2.22;;;9.90;99.90;;;;;;5115077;28;20222;-79
2023/03/31 02:47:03;;;;;;;2.35;2.15;;;9.90;99.90;;;;;;5114651;28;20282;-78
2023/03/31 02:49:32;;;;;;;2.13;1.65;;;9.90;99.90;;;;;;5115266;28;20196;-78
2023/03/31 02:52:19;;;;;;;3.20;2.40;;;10.00;99.90;;;;;;5114390;28;20219;-78
2023/03/31 02:55:36;;;;;;;2.58;2.33;;;10.00;99.90;;;;;;5115103;28;20210;-79
2023/03/31 02:58:33;;;;;;;3.58;1.80;;;10.00;99.90;;;;;;5068128;28;20204;-79
2023/03/31 03:01:18;;;;;;;2.22;2.00;;;10.00;99.90;;;;;;5114386;28;20219;-79
2023/03/31 03:03:58;;;;;;;3.45;2.47;;;10.00;99.90;;;;;;5115150;28;20196;-79
2023/03/31 03:06:37;;;;;;;2.20;2.10;;;10.00;99.90;;;;;;5114813;28;20195;-79
2023/03/31 03:09:18;;;;;;;1.75;1.65;;;9.90;99.90;;;;;;5114416;28;20261;-79
2023/03/31 03:11:51;;;;;;;2.08;1.88;;;9.90;99.90;;;;;;5111307;28;20287;-79
2023/03/31 03:14:28;;;;;;;2.53;1.92;;;9.90;99.90;;;;;;5114636;28;20252;-79
2023/03/31 03:17:02;;;;;;;2.50;2.30;;;9.80;99.90;;;;;;5110631;28;20199;-79
2023/03/31 03:19:30;;;;;;;3.10;2.28;;;9.80;99.90;;;;;;5114571;28;20223;-79
2023/03/31 03:21:58;;;;;;;2.13;2.03;;;9.80;99.90;;;;;;5113443;28;20223;-79
2023/03/31 03:24:28;;;;;;;2.60;2.22;;;9.80;99.90;;;;;;5099650;28;20191;-79
2023/03/31 03:26:57;;;;;;;6.90;2.10;;;9.80;99.90;;;;;;5113764;28;20206;-79
2023/03/31 03:29:27;;;;;;;3.40;2.60;;;9.80;99.90;;;;;;5114023;28;20255;-79
2023/03/31 03:31:55;;;;;;;2.13;1.92;;;9.70;99.90;;;;;;5113988;28;20235;-79
2023/03/31 03:34:24;;;;;;;1.83;1.73;;;9.70;99.90;;;;;;5114320;28;20234;-79
2023/03/31 03:36:52;;;;;;;2.05;1.95;;;9.70;99.90;;;;;;5113602;28;20207;-79
2023/03/31 03:39:21;;;;;;;2.25;2.05;;;9.60;99.90;;;;;;5114368;28;20302;-79
2023/03/31 03:41:51;;;;;;;2.85;2.58;;;9.60;99.90;;;;;;5113720;28;20322;-79
2023/03/31 03:44:19;;;;;;;2.38;2.05;;;9.60;99.90;;;;;;5113834;28;20206;-79
2023/03/31 03:46:49;;;;;;;2.53;2.20;;;9.50;99.90;;;;;;5113350;28;20204;-79
2023/03/31 03:49:19;;;;;;;2.78;2.55;;;9.50;99.90;;;;;;5114012;28;20302;-79
2023/03/31 03:51:47;;;;;;;2.10;1.80;;;9.50;99.90;;;;;;5113556;28;20228;-79
2023/03/31 03:54:16;;;;;;;3.60;2.97;;;9.40;99.90;;;;;;5113453;28;20287;-79
2023/03/31 03:56:44;;;;;;;3.53;2.45;;;9.40;99.90;;;;;;5113231;28;20238;-78
2023/03/31 03:59:15;;;;;;;5.00;2.53;;;9.40;99.90;;;;;;5113201;28;20216;-79
2023/03/31 04:01:46;;;;;;;3.17;2.00;;;9.40;99.90;;;;;;5113550;28;20233;-79
2023/03/31 04:04:17;;;;;;;5.50;3.13;;;9.40;99.90;;;;;;5113380;28;20249;-80
2023/03/31 04:06:45;;;;;;;4.10;2.22;;;9.40;99.90;;;;;;5112906;28;20192;-80
2023/03/31 04:09:14;;;;;;;3.63;2.10;;;9.30;99.90;;;;;;5113255;28;20212;-80
2023/03/31 04:11:42;;;;;;;2.67;2.45;;;9.30;99.90;;;;;;5110780;28;20223;-80
2023/03/31 04:14:11;;;;;;;2.92;2.38;;;9.30;99.90;;;;;;5099047;28;20212;-80
2023/03/31 04:16:41;;;;;;;3.10;2.25;;;9.20;99.90;;;;;;5113412;28;20229;-79
2023/03/31 04:19:12;;;;;;;2.95;2.55;;;9.20;99.90;;;;;;5108335;28;20222;-80
2023/03/31 04:21:43;;;;;;;2.30;2.20;;;9.10;99.90;;;;;;5112960;28;20219;-79
2023/03/31 04:24:20;;;;;;;4.97;3.03;;;9.20;99.90;;;;;;5113115;28;20218;-79
2023/03/31 04:26:49;;;;;;;5.80;2.63;;;9.00;99.90;;;;;;5113136;28;20210;-79
2023/03/31 04:29:19;;;;;;;4.72;2.70;;;9.00;99.90;;;;;;5112948;28;20208;-79
2023/03/31 04:31:49;;;;;;;3.00;2.33;;;9.00;99.90;;;;;;5113101;28;20223;-80
2023/03/31 04:34:18;;;;;;;5.47;2.33;;;8.90;99.90;;;;;;5113402;28;20208;-80
2023/03/31 04:36:51;;;;;;;1.90;1.80;;;8.90;99.90;;;;;;5112723;28;20200;-79
2023/03/31 04:39:25;;;;;;;2.00;1.90;;;8.90;99.90;;;;;;5112690;28;20287;-79
2023/03/31 04:41:54;;;;;;;11.70;2.42;;;8.80;99.90;;;;;;5113226;28;20223;-78
2023/03/31 04:44:22;;;;;;;2.25;2.08;;;8.80;99.90;;;;;;5112565;28;20324;-79
2023/03/31 04:46:51;;;;;;;2.95;2.38;;;8.80;99.90;;;;;;5111523;28;20195;-79
2023/03/31 04:49:23;;;;;;;3.03;2.47;;;8.80;99.90;;;;;;5112644;28;20298;-79
2023/03/31 04:51:53;;;;;;;5.82;2.35;;;8.80;99.90;;;;;;5112692;28;20227;-79
2023/03/31 04:54:23;;;;;;;4.65;2.75;;;8.70;99.90;;;;;;5112909;28;20203;-80
2023/03/31 04:56:52;;;;;;;2.60;2.40;;;8.70;99.90;;;;;;5112558;28;20211;-80
2023/03/31 04:59:20;;;;;;;4.97;2.85;;;8.70;99.90;;;;;;5112434;28;20204;-79
2023/03/31 05:01:49;;;;;;;4.40;2.55;;;8.70;99.90;;;;;;5108995;28;20208;-80
2023/03/31 05:04:17;;;;;;;2.85;2.63;;;8.70;99.90;;;;;;5112702;28;20327;-81
2023/03/31 05:06:46;;;;;;;4.40;2.67;;;8.70;99.90;;;;;;5112668;28;20210;-81
2023/03/31 05:09:16;;;;;;;2.92;2.55;;;8.80;99.90;;;;;;5112395;28;20231;-81
2023/03/31 05:11:45;;;;;;;2.28;2.08;;;8.80;99.90;;;;;;5108430;28;20220;-81
2023/03/31 05:14:13;;;;;;;3.30;3.00;;;8.80;99.90;;;;;;5094342;28;20266;-80
2023/03/31 05:16:42;;;;;;;3.58;2.92;;;8.80;99.90;;;;;;5112002;28;20302;-81
2023/03/31 05:19:10;;;;;;;2.35;2.15;;;8.90;99.90;;;;;;5112591;28;20225;-81
2023/03/31 05:21:39;;;;;;;2.97;2.78;;;8.90;99.90;;;;;;5112008;28;20288;-81
2023/03/31 05:24:08;;;;;;;2.55;2.42;;;8.80;99.90;;;;;;5110700;28;20210;-81
2023/03/31 05:26:38;;;;;;;4.45;2.75;;;8.90;99.90;;;;;;5111514;28;20214;-79
2023/03/31 05:29:07;;;;;;;2.85;2.65;;;8.80;99.90;;;;;;5110969;28;20250;-80
2023/03/31 05:31:35;;;;;;;4.07;3.63;;;8.90;99.90;;;;;;5110559;28;20242;-80
2023/03/31 05:34:04;;;;;;;3.00;2.70;;;8.90;99.90;;;;;;5110872;28;20271;-80
2023/03/31 05:36:32;;;;;;;2.90;2.70;;;8.80;99.90;;;;;;5111647;28;20208;-80
2023/03/31 05:39:00;;;;;;;3.28;2.97;;;8.90;99.90;;;;;;5111025;28;20204;-80
2023/03/31 05:41:29;;;;;;;6.00;3.83;;;8.90;99.90;;;;;;5111143;28;20224;-80
2023/03/31 05:44:02;;;;;;;3.22;2.75;;;9.00;99.90;;;;;;5110349;28;20212;-80
2023/03/31 05:46:30;;;;;;;4.22;3.05;;;9.10;99.90;;;;;;5113274;28;20196;-80
2023/03/31 05:48:59;;;;;;;2.95;2.55;;;9.10;99.90;;;;;;5115098;28;20291;-80
2023/03/31 05:51:27;;;;;;;3.40;3.10;;;9.30;99.90;;;;;;5115176;28;20223;-80
2023/03/31 05:53:56;;;;;;;11.98;3.25;;;9.30;99.90;;;;;;5115031;28;20196;-80
2023/03/31 05:56:26;;;;;;;4.55;3.70;;;9.40;99.90;;;;;;5115155;28;20313;-80
2023/03/31 05:58:54;;;;;;;7.60;3.28;;;9.40;99.90;;;;;;5115147;28;20207;-80
2023/03/31 06:01:24;;;;;;;3.97;3.13;;;9.50;99.90;;;;;;5115222;28;20261;-80
2023/03/31 06:03:53;;;;;;;3.63;2.50;;;9.50;99.90;;;;;;5115125;28;20204;-80
2023/03/31 06:06:21;;;;;;;2.50;2.30;;;9.60;99.90;;;;;;5115097;28;20214;-80
2023/03/31 06:08:50;;;;;;;4.35;2.55;;;9.60;99.90;;;;;;5114439;28;20283;-80
2023/03/31 06:11:20;;;;;;;4.53;2.95;;;9.70;99.90;;;;;;5115231;28;20215;-79
2023/03/31 06:13:50;;;;;;;2.65;2.40;;;9.70;99.90;;;;;;5095189;28;20242;-79
2023/03/31 06:16:19;;;;;;;2.33;2.15;;;9.90;99.90;;;;;;5114184;28;20257;-79
2023/03/31 06:18:50;;;;;;;2.22;1.90;;;10.00;99.90;;;;;;5114433;28;20200;-79
2023/03/31 06:21:22;;;;;;;2.35;2.15;;;10.10;99.90;;;;;;5114346;28;20277;-80
2023/03/31 06:23:54;;;;;;;2.08;1.98;;;10.30;99.90;;;;;;5114513;28;20195;-79
2023/03/31 06:26:22;;;;;;;7.35;2.45;;;10.50;99.90;;;;;;5114982;28;20291;-79
2023/03/31 06:28:51;;;;;;;2.40;2.20;;;10.60;99.90;;;;;;5114109;28;20196;-80
2023/03/31 06:31:23;;;;;;;4.30;2.33;;;10.70;99.90;;;;;;5114650;28;20245;-80
2023/03/31 06:33:53;;;;;;;2.13;1.92;;;10.80;99.90;;;;;;5114979;28;20219;-80
2023/03/31 06:36:23;;;;;;;3.42;2.55;;;10.90;99.90;;;;;;5114436;28;20212;-85
2023/03/31 06:38:51;;;;;;;4.93;2.72;;;11.00;99.90;;;;;;5114156;28;20238;-80
2023/03/31 06:41:21;;;;;;;2.40;2.20;;;11.10;99.90;;;;;;5114565;28;20255;-80
2023/03/31 06:43:50;;;;;;;3.17;2.50;;;11.10;99.90;;;;;;5114536;28;20207;-80
2023/03/31 06:46:18;;;;;;;3.97;3.25;;;11.20;99.90;;;;;;5114235;28;20291;-81
2023/03/31 06:48:47;;;;;;;12.38;3.20;;;11.30;99.90;;;;;;5113585;28;20214;-80
2023/03/31 06:51:17;;;;;;;3.35;3.05;;;11.30;99.90;;;;;;5114189;28;20220;-79
2023/03/31 06:53:45;;;;;;;4.03;3.25;;;11.30;99.90;;;;;;5114311;28;20282;-79
2023/03/31 06:56:14;;;;;;;8.75;3.60;;;11.40;99.90;;;;;;5114227;28;20236;-78
2023/03/31 06:58:42;;;;;;;8.48;3.92;;;11.40;99.90;;;;;;5113196;28;20241;-79
2023/03/31 07:01:11;;;;;;;3.92;3.17;;;11.50;99.90;;;;;;5113926;28;20216;-79
2023/03/31 07:03:40;;;;;;;5.30;3.40;;;11.50;99.90;;;;;;5113977;28;20203;-79
2023/03/31 07:06:09;;;;;;;3.67;3.05;;;11.50;99.90;;;;;;5114811;28;20212;-79
2023/03/31 07:08:39;;;;;;;3.72;3.42;;;11.50;99.90;;;;;;5114324;28;20212;-79
2023/03/31 07:11:07;;;;;;;3.50;3.20;;;11.40;99.90;;;;;;5114650;28;20255;-79
2023/03/31 07:13:36;;;;;;;5.47;4.28;;;11.50;99.90;;;;;;5114816;28;20212;-79
2023/03/31 07:16:06;;;;;;;7.55;3.38;;;11.50;99.90;;;;;;5114461;28;20234;-79
2023/03/31 07:18:36;;;;;;;3.97;3.58;;;11.60;99.90;;;;;;5114432;28;20207;-79
2023/03/31 07:21:09;;;;;;;7.88;3.58;;;11.90;99.90;;;;;;5114552;28;20228;-79
2023/03/31 07:23:39;;;;;;;3.55;2.70;;;12.00;99.90;;;;;;5114207;28;20226;-79
2023/03/31 07:26:08;;;;;;;4.40;2.55;;;12.20;99.90;;;;;;5114396;28;20226;-79
2023/03/31 07:28:36;;;;;;;4.43;2.53;;;12.20;99.90;;;;;;5114631;28;20199;-79
2023/03/31 07:31:14;;;;;;;4.60;3.50;;;12.30;99.90;;;;;;5113901;28;20233;-79
2023/03/31 07:33:43;;;;;;;3.60;3.00;;;12.40;99.90;;;;;;5114401;28;20196;-79
2023/03/31 07:36:12;;;;;;;3.45;3.15;;;12.50;99.90;;;;;;5113964;28;20219;-80
2023/03/31 07:38:44;;;;;;;5.22;3.05;;;12.60;99.90;;;;;;5113811;28;20196;-83
2023/03/31 07:41:14;;;;;;;3.92;3.47;;;12.70;99.90;;;;;;5113995;28;20223;-83
2023/03/31 07:43:43;;;;;;;3.33;2.90;;;12.70;99.90;;;;;;5113032;28;20203;-85
2023/03/31 07:46:16;;;;;;;4.45;3.03;;;12.70;99.90;;;;;;5114033;28;20200;-84
2023/03/31 07:48:46;;;;;;;5.05;3.72;;;12.80;99.90;;;;;;5113825;28;20215;-84
2023/03/31 07:51:16;;;;;;;4.38;3.97;;;12.70;99.90;;;;;;5113853;28;20254;-84
2023/03/31 07:53:48;;;;;;;4.82;3.65;;;12.80;99.90;;;;;;5113707;28;20215;-85
2023/03/31 07:56:17;;;;;;;3.72;3.33;;;12.90;99.90;;;;;;5113729;28;20204;-84
2023/03/31 07:58:46;;;;;;;10.57;4.07;;;12.90;99.90;;;;;;5113346;28;20207;-83
2023/03/31 08:01:16;;;;;;;3.90;3.40;;;13.00;99.90;;;;;;5113782;28;20235;-80
2023/03/31 08:03:45;;;;;;;5.13;3.78;;;13.20;99.90;;;;;;5113491;28;20204;-80
2023/03/31 08:06:18;;;;;;;4.50;3.70;;;13.30;99.90;;;;;;5113554;28;20212;-80
2023/03/31 08:08:48;;;;;;;23.27;3.25;;;13.40;99.90;;;;;;5112270;28;20268;-80
2023/03/31 08:11:17;;;;;;;4.53;2.40;;;13.50;99.90;;;;;;5113751;28;20224;-80
2023/03/31 08:13:45;;;;;;;4.78;3.42;;;13.60;99.90;;;;;;5093897;28;20250;-80
2023/03/31 08:16:19;;;;;;;2.58;2.13;;;13.60;99.90;;;;;;5093458;28;20210;-80
2023/03/31 08:18:48;;;;;;;3.50;2.33;;;13.60;99.90;;;;;;5092234;28;20206;-83
2023/03/31 08:21:18;;;;;;;2.65;2.33;;;13.60;99.90;;;;;;5092686;28;20227;-80
2023/03/31 08:23:54;;;;;;;5.60;2.63;;;13.60;99.90;;;;;;5093041;28;20204;-80
2023/03/31 08:26:24;;;;;;;2.35;2.15;;;13.60;99.90;;;;;;5093211;28;20208;-83
2023/03/31 08:28:53;;;;;;;2.53;2.33;;;13.60;99.90;;;;;;5092944;28;20238;-83
2023/03/31 08:31:24;;;;;;;2.28;2.13;;;13.50;99.90;;;;;;5093000;28;20228;-84
2023/03/31 08:33:54;;;;;;;3.85;3.35;;;13.60;99.90;;;;;;5092788;28;20291;-84
2023/03/31 08:36:22;;;;;;;2.47;2.28;;;13.60;99.90;;;;;;5092565;28;20204;-84
2023/03/31 08:38:53;;;;;;;3.28;2.97;;;13.60;99.90;;;;;;5092532;28;20216;-83
2023/03/31 08:41:50;;;;;;;4.93;2.50;;;13.70;99.90;;;;;;5093025;28;20228;-83
2023/03/31 08:44:25;;;;;;;2.30;2.10;;;13.70;99.90;;;;;;5091912;28;20265;-84
2023/03/31 08:46:56;;;;;;;4.72;2.85;;;13.80;99.90;;;;;;5092012;28;20234;-84
2023/03/31 08:49:26;;;;;;;3.88;2.80;;;13.90;99.90;;;;;;5092631;28;20266;-84
2023/03/31 08:51:58;;;;;;;3.25;2.38;;;13.90;99.90;;;;;;5092702;28;20224;-84
2023/03/31 08:54:34;;;;;;;3.05;2.75;;;13.90;99.90;;;;;;5092479;28;20208;-84
2023/03/31 08:57:05;;;;;;;4.70;2.95;;;13.90;99.90;;;;;;5092119;28;20235;-84
2023/03/31 08:59:35;;;;;;;2.45;2.05;;;13.90;99.90;;;;;;5092729;28;20210;-84
2023/03/31 09:02:17;;;;;;;3.92;2.45;;;13.80;99.90;;;;;;5092401;28;20212;-80
2023/03/31 09:05:18;;;;;;;2.97;2.60;;;13.80;99.90;;;;;;5092363;28;20230;-83
2023/03/31 09:07:58;;;;;;;2.78;2.10;;;13.80;99.90;;;;;;5068251;28;20261;-83
2023/03/31 09:10:38;;;;;;;2.40;2.17;;;13.80;99.90;;;;;;5092341;28;20235;-83
2023/03/31 09:13:21;;;;;;;3.53;2.50;;;13.80;99.90;;;;;;5106366;28;20286;-83
2023/03/31 09:15:53;;;;;;;2.28;2.08;;;13.80;99.90;;;;;;5097200;28;20231;-83
2023/03/31 09:18:29;;;;;;;2.38;2.08;;;13.80;99.90;;;;;;5091739;28;20228;-84
2023/03/31 09:21:05;;;;;;;6.72;2.53;;;13.90;99.90;;;;;;5092913;28;20262;-84
2023/03/31 09:23:38;;;;;;;4.03;2.78;;;13.80;99.90;;;;;;5096036;28;20216;-84
2023/03/31 09:26:17;;;;;;;3.17;2.42;;;13.80;99.90;;;;;;5096719;28;20285;-83
2023/03/31 09:28:47;;;;;;;2.72;2.30;;;13.80;99.90;;;;;;5095740;28;20208;-83
2023/03/31 09:31:18;;;;;;;2.45;2.25;;;13.80;99.90;;;;;;5096470;28;20217;-80
2023/03/31 09:33:47;;;;;;;2.95;2.40;;;13.90;99.90;;;;;;5096874;28;20242;-80
2023/03/31 09:36:18;;;;;;;2.50;2.30;;;13.80;99.90;;;;;;5096094;28;20304;-80
2023/03/31 09:38:47;;;;;;;2.67;2.47;;;13.90;99.90;;;;;;5095928;28;20219;-80
2023/03/31 09:41:18;;;;;;;4.32;2.75;;;14.00;99.90;;;;;;5096160;28;20228;-80
2023/03/31 09:43:48;;;;;;;3.53;2.55;;;14.10;99.90;;;;;;5096239;28;20263;-80
2023/03/31 09:46:21;;;;;;;3.85;3.38;;;14.20;99.90;;;;;;5096157;28;20201;-80
2023/03/31 09:48:55;;;;;;;3.47;2.35;;;14.30;99.90;;;;;;5095183;28;20204;-80
2023/03/31 09:51:29;;;;;;;2.75;2.55;;;14.30;99.90;;;;;;5095999;28;20248;-80
2023/03/31 09:54:07;;;;;;;2.53;2.22;;;14.40;99.90;;;;;;5095816;28;20204;-80
2023/03/31 09:56:49;;;;;;;10.63;3.05;;;14.40;99.90;;;;;;5095503;28;20234;-80
2023/03/31 09:59:19;;;;;;;3.47;2.88;;;14.50;99.90;;;;;;5095689;28;20216;-80
2023/03/31 10:01:50;;;;;;;3.22;2.95;;;14.50;99.90;;;;;;5095890;28;20231;-83
2023/03/31 10:04:22;;;;;;;3.30;2.78;;;14.50;99.90;;;;;;5095586;28;20228;-83
2023/03/31 10:06:52;;;;;;;2.80;2.60;;;14.50;99.90;;;;;;5095193;28;20239;-83
2023/03/31 10:09:25;;;;;;;2.75;2.53;;;14.60;99.90;;;;;;5095627;28;20216;-84
2023/03/31 10:12:00;;;;;;;2.58;2.38;;;14.60;99.90;;;;;;5099663;28;20227;-83
2023/03/31 10:14:39;;;;;;;2.85;2.58;;;14.60;99.90;;;;;;5111790;28;20261;-83
2023/03/31 10:17:07;;;;;;;3.58;3.28;;;14.70;99.90;;;;;;5095440;28;20254;-83
2023/03/31 10:19:37;;;;;;;2.50;2.30;;;14.60;99.90;;;;;;5095676;28;20196;-83
2023/03/31 10:22:15;;;;;;;3.33;3.03;;;14.60;99.90;;;;;;5094940;28;20232;-84
2023/03/31 10:24:44;;;;;;;3.55;2.65;;;14.60;99.90;;;;;;5095409;28;20211;-80
2023/03/31 10:27:22;;;;;;;4.18;3.00;;;14.60;99.90;;;;;;5094678;28;20231;-80
2023/03/31 10:29:54;;;;;;;3.47;3.10;;;14.70;99.90;;;;;;5095218;28;20208;-80
2023/03/31 10:32:27;;;;;;;2.75;2.55;;;14.70;99.90;;;;;;5094392;28;20232;-80
2023/03/31 10:34:57;;;;;;;3.00;2.67;;;14.80;99.90;;;;;;5095257;28;20211;-80
2023/03/31 10:37:30;;;;;;;2.63;2.42;;;14.90;99.90;;;;;;5094821;28;20270;-80
2023/03/31 10:40:00;;;;;;;6.35;2.88;;;14.90;99.90;;;;;;5095201;28;20212;-84
2023/03/31 10:42:30;;;;;;;3.88;2.65;;;15.00;99.90;;;;;;5094907;28;20274;-80
2023/03/31 10:45:12;;;;;;;2.63;2.42;;;15.00;99.90;;;;;;5094841;28;20212;-80
2023/03/31 10:47:58;;;;;;;2.50;2.30;;;15.10;99.90;;;;;;5094266;28;20226;-80
2023/03/31 10:50:29;;;;;;;3.15;2.85;;;15.10;99.90;;;;;;5094978;28;20247;-80
2023/03/31 10:53:03;;;;;;;3.72;2.45;;;15.10;99.90;;;;;;5095036;28;20192;-80
2023/03/31 10:55:36;;;;;;;3.42;2.80;;;15.10;99.90;;;;;;5094646;28;20230;-80
2023/03/31 10:58:19;;;;;;;7.78;3.15;;;15.10;99.90;;;;;;5094508;28;20208;-80
2023/03/31 11:00:59;;;;;;;4.00;3.42;;;15.10;99.90;;;;;;5094314;28;20320;-80
2023/03/31 11:03:45;;;;;;;3.45;2.78;;;15.00;99.90;;;;;;5094419;28;20293;-79
2023/03/31 11:06:20;;;;;;;4.88;3.78;;;15.00;99.90;;;;;;5094714;28;20203;-80
2023/03/31 11:09:02;;;;;;;4.70;3.58;;;15.00;99.90;;;;;;5094147;28;20258;-79
2023/03/31 11:11:52;;;;;;;4.32;3.63;;;15.00;99.90;;;;;;5095143;28;20228;-79
2023/03/31 11:14:33;;;;;;;10.23;3.33;;;15.10;99.90;;;;;;5111540;28;20274;-79
2023/03/31 11:17:10;;;;;;;2.78;2.40;;;15.10;99.90;;;;;;5093879;28;20205;-79
2023/03/31 11:19:45;;;;;;;3.78;2.92;;;15.10;99.90;;;;;;5094575;28;20196;-79
2023/03/31 11:22:20;;;;;;;3.00;2.78;;;15.10;99.90;;;;;;5094379;28;20232;-79
2023/03/31 11:25:18;;;;;;;5.13;2.88;;;15.10;99.90;;;;;;5093980;28;20283;-78
2023/03/31 11:28:26;;;;;;;2.92;2.72;;;15.20;99.90;;;;;;5093630;28;20232;-78
2023/03/31 11:31:04;;;;;;;5.97;3.30;;;15.30;99.90;;;;;;5093878;28;20231;-78
2023/03/31 11:33:44;;;;;;;4.03;3.72;;;15.80;99.90;;;;;;5094086;28;20307;-78
2023/03/31 11:36:31;;;;;;;4.57;2.83;;;16.00;99.90;;;;;;5094039;28;20208;-78
2023/03/31 11:39:10;;;;;;;2.85;2.50;;;16.10;99.90;;;;;;5093118;28;20243;-78
2023/03/31 11:41:45;;;;;;;2.95;2.65;;;16.50;99.90;;;;;;5094078;28;20232;-79
2023/03/31 11:44:17;;;;;;;2.63;2.40;;;16.90;99.90;;;;;;5092646;28;20246;-78
2023/03/31 11:46:50;;;;;;;3.08;2.78;;;17.50;99.90;;;;;;5093924;28;20200;-78
2023/03/31 11:49:22;;;;;;;2.72;2.40;;;18.00;99.90;;;;;;5093609;28;20266;-78
2023/03/31 11:51:54;;;;;;;2.70;2.50;;;18.10;99.90;;;;;;5093788;28;20256;-78
2023/03/31 11:54:30;;;;;;;2.50;2.30;;;18.20;99.90;;;;;;5093816;28;20228;-78
2023/03/31 11:57:03;;;;;;;2.50;2.30;;;18.10;99.90;;;;;;5093154;28;20272;-78
2023/03/31 11:59:32;;;;;;;2.95;2.65;;;18.20;99.90;;;;;;5093322;28;20277;-79
2023/03/31 12:02:16;;;;;;;2.83;2.35;;;18.40;99.90;;;;;;5093339;28;20254;-79
2023/03/31 12:04:49;;;;;;;2.95;2.28;;;18.70;98.70;;;;;;5092997;28;20256;-79
2023/03/31 12:07:24;;;;;;;2.35;2.15;;;19.00;97.00;;;;;;5092655;28;20200;-79
2023/03/31 12:10:02;;;;;;;7.72;2.65;;;18.80;96.80;;;;;;5093456;28;20281;-79
2023/03/31 12:12:37;;;;;;;2.65;2.30;;;18.50;97.70;;;;;;5102300;28;20204;-79
2023/03/31 12:15:14;;;;;;;2.60;2.40;;;18.10;97.80;;;;;;5112440;28;20251;-79
2023/03/31 12:17:48;;;;;;;2.90;2.30;;;17.70;97.60;;;;;;5107490;28;20228;-79
2023/03/31 12:20:25;;;;;;;2.72;2.30;;;17.40;98.30;;;;;;5113511;28;20199;-81
2023/03/31 12:22:56;;;;;;;2.90;2.53;;;17.30;99.20;;;;;;5092738;28;20216;-79
2023/03/31 12:25:26;;;;;;;2.35;1.83;;;17.10;99.20;;;;;;5091918;28;20223;-79
2023/03/31 12:27:55;;;;;;;5.13;2.20;;;17.00;99.90;;;;;;5101112;28;20205;-80
2023/03/31 12:30:30;;;;;;;2.75;2.55;;;16.80;99.90;;;;;;5111751;28;20281;-80
2023/03/31 12:33:06;;;;;;;3.63;3.17;;;16.60;99.90;;;;;;5112601;28;20346;-80
2023/03/31 12:35:46;;;;;;;2.58;2.10;;;16.50;99.90;;;;;;5111865;28;20191;-80
2023/03/31 12:38:46;;;;;;;3.78;2.88;;;16.30;99.90;;;;;;5111585;28;20218;-85
2023/03/31 12:41:22;;;;;;;2.55;2.35;;;16.20;99.90;;;;;;5098230;28;20283;-79
2023/03/31 12:44:12;;;;;;;3.67;2.92;;;16.30;99.90;;;;;;5112510;28;20223;-79
2023/03/31 12:46:57;;;;;;;2.67;2.47;;;16.50;99.90;;;;;;5092841;28;20200;-79
2023/03/31 12:49:43;;;;;;;2.75;2.55;;;16.90;99.90;;;;;;5092421;28;20516;-79
2023/03/31 12:52:19;;;;;;;3.15;2.40;;;17.50;99.90;;;;;;5092550;28;20330;-79
2023/03/31 12:55:21;;;;;;;2.60;1.85;;;18.20;99.40;;;;;;5091920;28;20263;-79
2023/03/31 12:57:49;;;;;;;2.40;2.20;;;18.80;97.50;;;;;;5102988;28;20242;-79
2023/03/31 13:00:24;;;;;;;2.70;2.47;;;19.20;96.30;;;;;;5109013;28;20292;-80
2023/03/31 13:03:26;;;;;;;2.65;2.45;;;19.50;95.00;;;;;;5106010;28;20257;-80
2023/03/31 13:05:56;;;;;;;5.15;2.17;;;19.80;94.10;;;;;;5100000;28;20207;-80
2023/03/31 13:08:53;;;;;;;10.30;2.70;;;20.20;94.10;;;;;;5090188;28;20234;-80
2023/03/31 13:11:34;;;;;;;3.60;2.80;;;20.30;93.40;;;;;;5109851;28;20239;-81
2023/03/31 13:14:05;;;;;;;4.57;2.35;;;20.40;92.30;;;;;;5092380;28;20200;-81
2023/03/31 13:16:36;;;;;;;2.53;2.17;;;20.60;91.80;;;;;;5111872;28;20211;-81
2023/03/31 13:19:05;;;;;;;3.92;2.58;;;20.70;90.70;;;;;;5111321;28;20207;-81
2023/03/31 13:21:53;;;;;;;2.83;2.53;;;20.70;90.30;;;;;;5110542;28;20219;-81